sensor_id;sensor_type;location;lat;lon;timestamp;P1;durP1;ratioP1;P2;durP2;ratioP2
3085;SDS011;52812;48.960;9.108;2023-06-19T00:01:59;2.27;;;2.07;;
3085;SDS011;52812;48.960;9.108;2023-06-19T00:04:25;2.73;;;1.80;;
3085;SDS011;52812;48.960;9.108;2023-06-19T00:06:51;2.33;;;1.80;;
3085;SDS011;52812;48.960;9.108;2023-06-19T00:09:18;2.10;;;1.90;;
3085;SDS011;52812;48.960;9.108;2023-06-19T00:11:43;1.87;;;1.67;;
3085;SDS011;52812;48.960;9.108;2023-06-19T00:14:09;2.30;;;1.90;;
3085;SDS011;52812;48.960;9.108;2023-06-19T00:16:35;2.23;;;1.97;;
3085;SDS011;52812;48.960;9.108;2023-06-19T00:19:00;2.83;;;1.80;;
3085;SDS011;52812;48.960;9.108;2023-06-19T00:21:28;2.67;;;1.90;;
3085;SDS011;52812;48.960;9.108;2023-06-19T00:23:54;2.03;;;1.50;;
3085;SDS011;52812;48.960;9.108;2023-06-19T00:26:20;2.23;;;1.60;;
3085;SDS011;52812;48.960;9.108;2023-06-19T00:28:50;2.40;;;1.90;;
3085;SDS011;52812;48.960;9.108;2023-06-19T00:31:16;2.47;;;1.90;;
3085;SDS011;52812;48.960;9.108;2023-06-19T00:33:44;1.63;;;1.50;;
3085;SDS011;52812;48.960;9.108;2023-06-19T00:36:12;2.30;;;2.10;;
3085;SDS011;52812;48.960;9.108;2023-06-19T00:38:39;1.60;;;1.50;;
3085;SDS011;52812;48.960;9.108;2023-06-19T00:41:05;1.90;;;1.67;;
3085;SDS011;52812;48.960;9.108;2023-06-19T00:43:31;2.20;;;1.80;;
3085;SDS011;52812;48.960;9.108;2023-06-19T00:45:57;3.00;;;2.00;;
3085;SDS011;52812;48.960;9.108;2023-06-19T00:48:24;1.90;;;1.80;;
3085;SDS011;52812;48.960;9.108;2023-06-19T00:50:51;1.97;;;1.50;;
3085;SDS011;52812;48.960;9.108;2023-06-19T00:53:17;1.70;;;1.60;;
3085;SDS011;52812;48.960;9.108;2023-06-19T00:55:44;1.57;;;1.33;;
3085;SDS011;52812;48.960;9.108;2023-06-19T00:58:11;3.07;;;2.23;;
3085;SDS011;52812;48.960;9.108;2023-06-19T01:00:37;2.53;;;2.17;;
3085;SDS011;52812;48.960;9.108;2023-06-19T01:03:02;1.33;;;1.23;;
3085;SDS011;52812;48.960;9.108;2023-06-19T01:05:29;2.30;;;2.10;;
3085;SDS011;52812;48.960;9.108;2023-06-19T01:10:40;2.30;;;1.80;;
3085;SDS011;52812;48.960;9.108;2023-06-19T01:13:30;2.70;;;2.40;;
3085;SDS011;52812;48.960;9.108;2023-06-19T01:16:21;2.00;;;1.70;;
3085;SDS011;52812;48.960;9.108;2023-06-19T01:18:47;2.37;;;2.00;;
3085;SDS011;52812;48.960;9.108;2023-06-19T01:21:15;2.47;;;1.97;;
3085;SDS011;52812;48.960;9.108;2023-06-19T01:23:41;2.90;;;2.20;;
3085;SDS011;52812;48.960;9.108;2023-06-19T01:26:08;2.80;;;2.10;;
3085;SDS011;52812;48.960;9.108;2023-06-19T01:28:35;1.50;;;1.40;;
3085;SDS011;52812;48.960;9.108;2023-06-19T01:31:02;2.30;;;1.77;;
3085;SDS011;52812;48.960;9.108;2023-06-19T01:33:48;1.60;;;1.40;;
3085;SDS011;52812;48.960;9.108;2023-06-19T01:36:17;2.80;;;1.70;;
3085;SDS011;52812;48.960;9.108;2023-06-19T01:38:45;1.77;;;1.57;;
3085;SDS011;52812;48.960;9.108;2023-06-19T01:41:12;1.73;;;1.20;;
3085;SDS011;52812;48.960;9.108;2023-06-19T01:43:40;1.30;;;1.20;;
3085;SDS011;52812;48.960;9.108;2023-06-19T01:46:06;1.20;;;1.10;;
3085;SDS011;52812;48.960;9.108;2023-06-19T01:48:34;1.33;;;1.23;;
3085;SDS011;52812;48.960;9.108;2023-06-19T01:51:00;1.57;;;1.47;;
3085;SDS011;52812;48.960;9.108;2023-06-19T01:53:28;1.60;;;1.50;;
3085;SDS011;52812;48.960;9.108;2023-06-19T01:55:55;1.20;;;1.10;;
3085;SDS011;52812;48.960;9.108;2023-06-19T01:58:21;1.40;;;1.30;;
3085;SDS011;52812;48.960;9.108;2023-06-19T02:00:46;1.57;;;1.30;;
3085;SDS011;52812;48.960;9.108;2023-06-19T02:03:12;1.17;;;1.07;;
3085;SDS011;52812;48.960;9.108;2023-06-19T02:05:38;1.20;;;1.10;;
3085;SDS011;52812;48.960;9.108;2023-06-19T02:08:04;1.33;;;1.10;;
3085;SDS011;52812;48.960;9.108;2023-06-19T02:10:31;1.07;;;0.97;;
3085;SDS011;52812;48.960;9.108;2023-06-19T02:12:57;1.40;;;1.30;;
3085;SDS011;52812;48.960;9.108;2023-06-19T02:15:23;1.10;;;1.00;;
3085;SDS011;52812;48.960;9.108;2023-06-19T02:17:48;1.13;;;1.03;;
3085;SDS011;52812;48.960;9.108;2023-06-19T02:20:14;1.10;;;1.00;;
3085;SDS011;52812;48.960;9.108;2023-06-19T02:22:39;1.30;;;1.20;;
3085;SDS011;52812;48.960;9.108;2023-06-19T02:25:06;1.00;;;0.90;;
3085;SDS011;52812;48.960;9.108;2023-06-19T02:27:32;1.23;;;1.10;;
3085;SDS011;52812;48.960;9.108;2023-06-19T02:29:57;1.17;;;1.07;;
3085;SDS011;52812;48.960;9.108;2023-06-19T02:32:23;1.63;;;1.30;;
3085;SDS011;52812;48.960;9.108;2023-06-19T02:34:50;1.33;;;0.87;;
3085;SDS011;52812;48.960;9.108;2023-06-19T02:37:15;1.10;;;1.00;;
3085;SDS011;52812;48.960;9.108;2023-06-19T02:39:41;1.37;;;1.20;;
3085;SDS011;52812;48.960;9.108;2023-06-19T02:42:06;0.93;;;0.93;;
3085;SDS011;52812;48.960;9.108;2023-06-19T02:44:32;1.00;;;0.90;;
3085;SDS011;52812;48.960;9.108;2023-06-19T02:46:58;1.00;;;0.90;;
3085;SDS011;52812;48.960;9.108;2023-06-19T02:49:24;1.13;;;1.03;;
3085;SDS011;52812;48.960;9.108;2023-06-19T02:51:49;1.37;;;1.27;;
3085;SDS011;52812;48.960;9.108;2023-06-19T02:54:15;0.97;;;0.87;;
3085;SDS011;52812;48.960;9.108;2023-06-19T02:56:40;1.13;;;0.83;;
3085;SDS011;52812;48.960;9.108;2023-06-19T02:59:06;0.90;;;0.83;;
3085;SDS011;52812;48.960;9.108;2023-06-19T03:01:32;1.63;;;1.47;;
3085;SDS011;52812;48.960;9.108;2023-06-19T03:03:59;0.80;;;0.70;;
3085;SDS011;52812;48.960;9.108;2023-06-19T03:06:25;1.00;;;0.90;;
3085;SDS011;52812;48.960;9.108;2023-06-19T03:08:51;0.77;;;0.70;;
3085;SDS011;52812;48.960;9.108;2023-06-19T03:11:17;0.70;;;0.70;;
3085;SDS011;52812;48.960;9.108;2023-06-19T03:13:52;1.00;;;0.90;;
3085;SDS011;52812;48.960;9.108;2023-06-19T03:16:19;0.80;;;0.73;;
3085;SDS011;52812;48.960;9.108;2023-06-19T03:18:45;0.80;;;0.80;;
3085;SDS011;52812;48.960;9.108;2023-06-19T03:21:15;0.93;;;0.83;;
3085;SDS011;52812;48.960;9.108;2023-06-19T03:23:41;1.10;;;1.00;;
3085;SDS011;52812;48.960;9.108;2023-06-19T03:26:09;1.83;;;1.10;;
3085;SDS011;52812;48.960;9.108;2023-06-19T03:28:36;0.80;;;0.80;;
3085;SDS011;52812;48.960;9.108;2023-06-19T03:31:01;0.80;;;0.80;;
3085;SDS011;52812;48.960;9.108;2023-06-19T03:33:27;0.90;;;0.70;;
3085;SDS011;52812;48.960;9.108;2023-06-19T03:35:53;0.83;;;0.80;;
3085;SDS011;52812;48.960;9.108;2023-06-19T03:38:19;1.00;;;0.90;;
3085;SDS011;52812;48.960;9.108;2023-06-19T03:40:44;0.70;;;0.63;;
3085;SDS011;52812;48.960;9.108;2023-06-19T03:43:10;1.27;;;0.90;;
3085;SDS011;52812;48.960;9.108;2023-06-19T03:45:36;1.27;;;1.17;;
3085;SDS011;52812;48.960;9.108;2023-06-19T03:48:01;1.03;;;0.93;;
3085;SDS011;52812;48.960;9.108;2023-06-19T03:50:27;0.70;;;0.60;;
3085;SDS011;52812;48.960;9.108;2023-06-19T03:52:53;0.80;;;0.70;;
3085;SDS011;52812;48.960;9.108;2023-06-19T03:55:18;0.80;;;0.70;;
3085;SDS011;52812;48.960;9.108;2023-06-19T03:57:44;1.10;;;1.00;;
3085;SDS011;52812;48.960;9.108;2023-06-19T04:00:10;1.33;;;0.87;;
3085;SDS011;52812;48.960;9.108;2023-06-19T04:02:38;0.97;;;0.90;;
3085;SDS011;52812;48.960;9.108;2023-06-19T04:05:05;0.80;;;0.77;;
3085;SDS011;52812;48.960;9.108;2023-06-19T04:07:31;0.97;;;0.87;;
3085;SDS011;52812;48.960;9.108;2023-06-19T04:09:57;0.97;;;0.77;;
3085;SDS011;52812;48.960;9.108;2023-06-19T04:12:23;0.80;;;0.80;;
3085;SDS011;52812;48.960;9.108;2023-06-19T04:14:49;0.80;;;0.60;;
3085;SDS011;52812;48.960;9.108;2023-06-19T04:17:15;0.80;;;0.80;;
3085;SDS011;52812;48.960;9.108;2023-06-19T04:19:40;1.73;;;0.87;;
3085;SDS011;52812;48.960;9.108;2023-06-19T04:22:06;1.03;;;0.93;;
3085;SDS011;52812;48.960;9.108;2023-06-19T04:24:32;1.30;;;0.87;;
3085;SDS011;52812;48.960;9.108;2023-06-19T04:26:58;1.07;;;0.97;;
3085;SDS011;52812;48.960;9.108;2023-06-19T04:29:23;0.90;;;0.77;;
3085;SDS011;52812;48.960;9.108;2023-06-19T04:31:49;0.90;;;0.70;;
3085;SDS011;52812;48.960;9.108;2023-06-19T04:34:15;0.70;;;0.70;;
3085;SDS011;52812;48.960;9.108;2023-06-19T04:36:41;1.07;;;0.97;;
3085;SDS011;52812;48.960;9.108;2023-06-19T04:39:07;0.80;;;0.80;;
3085;SDS011;52812;48.960;9.108;2023-06-19T04:41:34;1.00;;;0.90;;
3085;SDS011;52812;48.960;9.108;2023-06-19T04:44:03;1.07;;;0.80;;
3085;SDS011;52812;48.960;9.108;2023-06-19T04:46:29;1.00;;;0.83;;
3085;SDS011;52812;48.960;9.108;2023-06-19T04:48:55;1.07;;;0.97;;
3085;SDS011;52812;48.960;9.108;2023-06-19T04:51:20;1.00;;;1.00;;
3085;SDS011;52812;48.960;9.108;2023-06-19T04:53:46;1.10;;;1.00;;
3085;SDS011;52812;48.960;9.108;2023-06-19T04:56:14;2.80;;;1.20;;
3085;SDS011;52812;48.960;9.108;2023-06-19T04:58:40;1.30;;;1.20;;
3085;SDS011;52812;48.960;9.108;2023-06-19T05:01:14;1.00;;;0.80;;
3085;SDS011;52812;48.960;9.108;2023-06-19T05:03:40;0.80;;;0.80;;
3085;SDS011;52812;48.960;9.108;2023-06-19T05:06:07;1.00;;;0.90;;
3085;SDS011;52812;48.960;9.108;2023-06-19T05:08:33;1.10;;;1.00;;
3085;SDS011;52812;48.960;9.108;2023-06-19T05:10:59;1.63;;;1.23;;
3085;SDS011;52812;48.960;9.108;2023-06-19T05:13:25;1.30;;;1.10;;
3085;SDS011;52812;48.960;9.108;2023-06-19T05:15:51;1.00;;;0.90;;
3085;SDS011;52812;48.960;9.108;2023-06-19T05:18:16;1.33;;;1.03;;
3085;SDS011;52812;48.960;9.108;2023-06-19T05:20:43;0.97;;;0.87;;
3085;SDS011;52812;48.960;9.108;2023-06-19T05:23:08;1.30;;;1.20;;
3085;SDS011;52812;48.960;9.108;2023-06-19T05:25:34;1.33;;;1.00;;
3085;SDS011;52812;48.960;9.108;2023-06-19T05:28:00;0.80;;;0.80;;
3085;SDS011;52812;48.960;9.108;2023-06-19T05:30:25;1.30;;;1.00;;
3085;SDS011;52812;48.960;9.108;2023-06-19T05:32:51;1.20;;;1.00;;
3085;SDS011;52812;48.960;9.108;2023-06-19T05:35:16;1.37;;;1.27;;
3085;SDS011;52812;48.960;9.108;2023-06-19T05:37:42;1.63;;;1.00;;
3085;SDS011;52812;48.960;9.108;2023-06-19T05:40:08;1.10;;;0.83;;
3085;SDS011;52812;48.960;9.108;2023-06-19T05:42:35;0.97;;;0.80;;
3085;SDS011;52812;48.960;9.108;2023-06-19T05:45:01;1.27;;;1.17;;
3085;SDS011;52812;48.960;9.108;2023-06-19T05:47:27;1.13;;;1.03;;
3085;SDS011;52812;48.960;9.108;2023-06-19T05:49:55;1.10;;;0.97;;
3085;SDS011;52812;48.960;9.108;2023-06-19T05:52:23;1.10;;;0.90;;
3085;SDS011;52812;48.960;9.108;2023-06-19T05:54:49;1.70;;;1.60;;
3085;SDS011;52812;48.960;9.108;2023-06-19T05:57:15;1.40;;;1.17;;
3085;SDS011;52812;48.960;9.108;2023-06-19T05:59:41;0.90;;;0.90;;
3085;SDS011;52812;48.960;9.108;2023-06-19T06:02:07;1.90;;;1.13;;
3085;SDS011;52812;48.960;9.108;2023-06-19T06:04:33;1.00;;;0.90;;
3085;SDS011;52812;48.960;9.108;2023-06-19T06:07:02;2.27;;;1.10;;
3085;SDS011;52812;48.960;9.108;2023-06-19T06:09:28;1.23;;;1.13;;
3085;SDS011;52812;48.960;9.108;2023-06-19T06:11:53;1.23;;;1.13;;
3085;SDS011;52812;48.960;9.108;2023-06-19T06:14:19;1.30;;;1.17;;
3085;SDS011;52812;48.960;9.108;2023-06-19T06:16:44;0.97;;;0.90;;
3085;SDS011;52812;48.960;9.108;2023-06-19T06:19:10;1.07;;;0.97;;
3085;SDS011;52812;48.960;9.108;2023-06-19T06:21:36;1.30;;;1.20;;
3085;SDS011;52812;48.960;9.108;2023-06-19T06:24:01;1.53;;;1.00;;
3085;SDS011;52812;48.960;9.108;2023-06-19T06:26:27;1.17;;;1.03;;
3085;SDS011;52812;48.960;9.108;2023-06-19T06:28:53;1.40;;;1.30;;
3085;SDS011;52812;48.960;9.108;2023-06-19T06:31:21;1.10;;;1.00;;
3085;SDS011;52812;48.960;9.108;2023-06-19T06:33:48;1.47;;;1.23;;
3085;SDS011;52812;48.960;9.108;2023-06-19T06:36:17;2.80;;;1.30;;
3085;SDS011;52812;48.960;9.108;2023-06-19T06:38:43;1.37;;;1.23;;
3085;SDS011;52812;48.960;9.108;2023-06-19T06:41:09;1.37;;;1.27;;
3085;SDS011;52812;48.960;9.108;2023-06-19T06:43:34;1.97;;;1.20;;
3085;SDS011;52812;48.960;9.108;2023-06-19T06:46:00;1.17;;;1.07;;
3085;SDS011;52812;48.960;9.108;2023-06-19T06:48:26;0.70;;;0.67;;
3085;SDS011;52812;48.960;9.108;2023-06-19T06:50:51;1.03;;;0.93;;
3085;SDS011;52812;48.960;9.108;2023-06-19T06:53:26;1.33;;;1.10;;
3085;SDS011;52812;48.960;9.108;2023-06-19T06:55:57;1.43;;;1.00;;
3085;SDS011;52812;48.960;9.108;2023-06-19T06:58:24;1.40;;;1.30;;
3085;SDS011;52812;48.960;9.108;2023-06-19T07:00:50;1.07;;;0.97;;
3085;SDS011;52812;48.960;9.108;2023-06-19T07:03:16;1.40;;;1.23;;
3085;SDS011;52812;48.960;9.108;2023-06-19T07:05:42;1.23;;;1.13;;
3085;SDS011;52812;48.960;9.108;2023-06-19T07:08:08;1.57;;;1.47;;
3085;SDS011;52812;48.960;9.108;2023-06-19T07:10:34;1.30;;;1.20;;
3085;SDS011;52812;48.960;9.108;2023-06-19T07:12:59;1.03;;;1.00;;
3085;SDS011;52812;48.960;9.108;2023-06-19T07:15:25;1.33;;;1.23;;
3085;SDS011;52812;48.960;9.108;2023-06-19T07:17:50;1.60;;;1.50;;
3085;SDS011;52812;48.960;9.108;2023-06-19T07:20:16;1.00;;;0.90;;
3085;SDS011;52812;48.960;9.108;2023-06-19T07:22:42;1.13;;;1.03;;
3085;SDS011;52812;48.960;9.108;2023-06-19T07:25:09;1.50;;;1.40;;
3085;SDS011;52812;48.960;9.108;2023-06-19T07:27:36;1.43;;;1.33;;
3085;SDS011;52812;48.960;9.108;2023-06-19T07:30:01;1.70;;;1.60;;
3085;SDS011;52812;48.960;9.108;2023-06-19T07:32:27;1.60;;;1.40;;
3085;SDS011;52812;48.960;9.108;2023-06-19T07:34:53;1.57;;;1.47;;
3085;SDS011;52812;48.960;9.108;2023-06-19T07:37:19;1.20;;;1.10;;
3085;SDS011;52812;48.960;9.108;2023-06-19T07:39:45;2.80;;;1.20;;
3085;SDS011;52812;48.960;9.108;2023-06-19T07:42:12;1.33;;;1.10;;
3085;SDS011;52812;48.960;9.108;2023-06-19T07:44:41;2.20;;;1.27;;
3085;SDS011;52812;48.960;9.108;2023-06-19T07:47:08;1.33;;;1.23;;
3085;SDS011;52812;48.960;9.108;2023-06-19T07:49:34;1.50;;;1.30;;
3085;SDS011;52812;48.960;9.108;2023-06-19T07:52:00;1.50;;;1.40;;
3085;SDS011;52812;48.960;9.108;2023-06-19T07:54:25;1.50;;;1.33;;
3085;SDS011;52812;48.960;9.108;2023-06-19T07:56:51;1.50;;;1.40;;
3085;SDS011;52812;48.960;9.108;2023-06-19T07:59:17;1.20;;;1.10;;
3085;SDS011;52812;48.960;9.108;2023-06-19T08:01:43;1.23;;;1.13;;
3085;SDS011;52812;48.960;9.108;2023-06-19T08:04:09;1.60;;;1.50;;
3085;SDS011;52812;48.960;9.108;2023-06-19T08:06:35;1.37;;;1.27;;
3085;SDS011;52812;48.960;9.108;2023-06-19T08:09:01;1.20;;;1.10;;
3085;SDS011;52812;48.960;9.108;2023-06-19T08:11:27;1.45;;;1.20;;
3085;SDS011;52812;48.960;9.108;2023-06-19T08:13:53;1.50;;;1.40;;
3085;SDS011;52812;48.960;9.108;2023-06-19T08:16:18;1.30;;;1.20;;
3085;SDS011;52812;48.960;9.108;2023-06-19T08:18:44;1.50;;;1.40;;
3085;SDS011;52812;48.960;9.108;2023-06-19T08:21:10;1.42;;;1.33;;
3085;SDS011;52812;48.960;9.108;2023-06-19T08:23:36;1.20;;;1.10;;
3085;SDS011;52812;48.960;9.108;2023-06-19T08:26:03;1.02;;;1.00;;
3085;SDS011;52812;48.960;9.108;2023-06-19T08:28:29;1.50;;;1.40;;
3085;SDS011;52812;48.960;9.108;2023-06-19T08:30:56;1.40;;;1.30;;
3085;SDS011;52812;48.960;9.108;2023-06-19T08:33:21;1.23;;;1.13;;
3085;SDS011;52812;48.960;9.108;2023-06-19T08:35:47;1.20;;;1.15;;
3085;SDS011;52812;48.960;9.108;2023-06-19T08:38:13;1.50;;;1.40;;
3085;SDS011;52812;48.960;9.108;2023-06-19T08:40:40;1.40;;;1.30;;
3085;SDS011;52812;48.960;9.108;2023-06-19T08:43:07;1.50;;;1.23;;
3085;SDS011;52812;48.960;9.108;2023-06-19T08:45:33;1.40;;;1.20;;
3085;SDS011;52812;48.960;9.108;2023-06-19T08:47:59;1.38;;;1.27;;
3085;SDS011;52812;48.960;9.108;2023-06-19T08:50:28;1.35;;;1.25;;
3085;SDS011;52812;48.960;9.108;2023-06-19T08:52:55;1.40;;;1.30;;
3085;SDS011;52812;48.960;9.108;2023-06-19T08:55:21;1.97;;;1.37;;
3085;SDS011;52812;48.960;9.108;2023-06-19T08:57:48;1.73;;;1.60;;
3085;SDS011;52812;48.960;9.108;2023-06-19T09:00:22;1.60;;;1.50;;
3085;SDS011;52812;48.960;9.108;2023-06-19T09:02:50;1.50;;;1.40;;
3085;SDS011;52812;48.960;9.108;2023-06-19T09:05:17;1.50;;;1.40;;
3085;SDS011;52812;48.960;9.108;2023-06-19T09:07:44;1.47;;;1.37;;
3085;SDS011;52812;48.960;9.108;2023-06-19T09:10:19;2.00;;;1.80;;
3085;SDS011;52812;48.960;9.108;2023-06-19T09:13:01;1.50;;;1.40;;
3085;SDS011;52812;48.960;9.108;2023-06-19T09:15:35;1.67;;;1.50;;
3085;SDS011;52812;48.960;9.108;2023-06-19T09:18:07;2.03;;;1.57;;
3085;SDS011;52812;48.960;9.108;2023-06-19T09:20:38;1.50;;;1.40;;
3085;SDS011;52812;48.960;9.108;2023-06-19T09:23:13;1.57;;;1.47;;
3085;SDS011;52812;48.960;9.108;2023-06-19T09:25:45;2.10;;;1.90;;
3085;SDS011;52812;48.960;9.108;2023-06-19T09:28:18;1.60;;;1.50;;
3085;SDS011;52812;48.960;9.108;2023-06-19T09:30:52;2.00;;;1.40;;
3085;SDS011;52812;48.960;9.108;2023-06-19T09:33:31;1.60;;;1.50;;
3085;SDS011;52812;48.960;9.108;2023-06-19T09:35:58;1.50;;;1.40;;
3085;SDS011;52812;48.960;9.108;2023-06-19T09:38:30;1.30;;;1.20;;
3085;SDS011;52812;48.960;9.108;2023-06-19T09:40:57;2.07;;;1.53;;
3085;SDS011;52812;48.960;9.108;2023-06-19T09:43:42;2.00;;;1.70;;
3085;SDS011;52812;48.960;9.108;2023-06-19T09:46:09;1.73;;;1.63;;
3085;SDS011;52812;48.960;9.108;2023-06-19T09:48:36;1.73;;;1.63;;
3085;SDS011;52812;48.960;9.108;2023-06-19T09:51:12;1.33;;;1.23;;
3085;SDS011;52812;48.960;9.108;2023-06-19T09:53:40;1.40;;;1.27;;
3085;SDS011;52812;48.960;9.108;2023-06-19T09:56:06;1.30;;;1.10;;
3085;SDS011;52812;48.960;9.108;2023-06-19T09:58:33;2.10;;;1.70;;
3085;SDS011;52812;48.960;9.108;2023-06-19T10:00:59;1.67;;;1.57;;
3085;SDS011;52812;48.960;9.108;2023-06-19T10:03:29;1.30;;;1.20;;
3085;SDS011;52812;48.960;9.108;2023-06-19T10:05:59;1.20;;;1.10;;
3085;SDS011;52812;48.960;9.108;2023-06-19T10:08:30;1.50;;;1.40;;
3085;SDS011;52812;48.960;9.108;2023-06-19T10:11:03;1.50;;;1.40;;
3085;SDS011;52812;48.960;9.108;2023-06-19T10:13:32;1.40;;;1.30;;
3085;SDS011;52812;48.960;9.108;2023-06-19T10:15:59;1.57;;;1.27;;
3085;SDS011;52812;48.960;9.108;2023-06-19T10:18:25;2.50;;;2.30;;
3085;SDS011;52812;48.960;9.108;2023-06-19T10:20:51;1.53;;;1.30;;
3085;SDS011;52812;48.960;9.108;2023-06-19T10:23:19;1.47;;;1.37;;
3085;SDS011;52812;48.960;9.108;2023-06-19T10:28:23;1.50;;;1.40;;
3085;SDS011;52812;48.960;9.108;2023-06-19T10:30:59;1.30;;;1.20;;
3085;SDS011;52812;48.960;9.108;2023-06-19T10:33:28;1.63;;;1.50;;
3085;SDS011;52812;48.960;9.108;2023-06-19T10:35:57;1.77;;;1.67;;
3085;SDS011;52812;48.960;9.108;2023-06-19T10:38:24;1.90;;;1.57;;
3085;SDS011;52812;48.960;9.108;2023-06-19T10:40:51;1.33;;;1.23;;
3085;SDS011;52812;48.960;9.108;2023-06-19T10:43:23;2.00;;;1.80;;
3085;SDS011;52812;48.960;9.108;2023-06-19T10:45:53;2.00;;;1.40;;
3085;SDS011;52812;48.960;9.108;2023-06-19T10:48:24;1.50;;;1.40;;
3085;SDS011;52812;48.960;9.108;2023-06-19T10:50:50;1.50;;;1.37;;
3085;SDS011;52812;48.960;9.108;2023-06-19T10:53:23;1.83;;;1.67;;
3085;SDS011;52812;48.960;9.108;2023-06-19T10:55:56;1.70;;;1.43;;
3085;SDS011;52812;48.960;9.108;2023-06-19T10:58:22;2.20;;;2.00;;
3085;SDS011;52812;48.960;9.108;2023-06-19T11:00:48;1.53;;;1.40;;
3085;SDS011;52812;48.960;9.108;2023-06-19T11:03:14;1.53;;;1.37;;
3085;SDS011;52812;48.960;9.108;2023-06-19T11:05:43;1.73;;;1.63;;
3085;SDS011;52812;48.960;9.108;2023-06-19T11:08:09;1.67;;;1.57;;
3085;SDS011;52812;48.960;9.108;2023-06-19T11:10:35;1.43;;;1.33;;
3085;SDS011;52812;48.960;9.108;2023-06-19T11:13:01;1.70;;;1.60;;
3085;SDS011;52812;48.960;9.108;2023-06-19T11:15:30;1.60;;;1.50;;
3085;SDS011;52812;48.960;9.108;2023-06-19T11:18:04;1.50;;;1.40;;
3085;SDS011;52812;48.960;9.108;2023-06-19T11:20:30;1.30;;;1.20;;
3085;SDS011;52812;48.960;9.108;2023-06-19T11:22:57;1.53;;;1.43;;
3085;SDS011;52812;48.960;9.108;2023-06-19T11:25:43;1.47;;;1.37;;
3085;SDS011;52812;48.960;9.108;2023-06-19T11:28:15;2.20;;;1.87;;
3085;SDS011;52812;48.960;9.108;2023-06-19T11:30:47;1.73;;;1.40;;
3085;SDS011;52812;48.960;9.108;2023-06-19T11:33:22;1.80;;;1.70;;
3085;SDS011;52812;48.960;9.108;2023-06-19T11:35:49;1.60;;;1.50;;
3085;SDS011;52812;48.960;9.108;2023-06-19T11:38:22;1.50;;;1.40;;
3085;SDS011;52812;48.960;9.108;2023-06-19T11:40:49;2.13;;;1.50;;
3085;SDS011;52812;48.960;9.108;2023-06-19T11:45:54;1.93;;;1.80;;
3085;SDS011;52812;48.960;9.108;2023-06-19T11:48:28;1.80;;;1.70;;
3085;SDS011;52812;48.960;9.108;2023-06-19T11:50:54;1.30;;;1.20;;
3085;SDS011;52812;48.960;9.108;2023-06-19T11:53:20;1.97;;;1.77;;
3085;SDS011;52812;48.960;9.108;2023-06-19T11:55:47;2.43;;;2.23;;
3085;SDS011;52812;48.960;9.108;2023-06-19T11:58:13;1.70;;;1.60;;
3085;SDS011;52812;48.960;9.108;2023-06-19T12:00:40;1.70;;;1.53;;
3085;SDS011;52812;48.960;9.108;2023-06-19T12:03:06;1.87;;;1.73;;
3085;SDS011;52812;48.960;9.108;2023-06-19T12:05:32;1.40;;;1.30;;
3085;SDS011;52812;48.960;9.108;2023-06-19T12:08:01;1.87;;;1.67;;
3085;SDS011;52812;48.960;9.108;2023-06-19T12:10:27;1.50;;;1.40;;
3085;SDS011;52812;48.960;9.108;2023-06-19T12:12:56;1.70;;;1.53;;
3085;SDS011;52812;48.960;9.108;2023-06-19T12:15:22;1.73;;;1.50;;
3085;SDS011;52812;48.960;9.108;2023-06-19T12:17:50;1.97;;;1.77;;
3085;SDS011;52812;48.960;9.108;2023-06-19T12:20:17;1.63;;;1.37;;
3085;SDS011;52812;48.960;9.108;2023-06-19T12:22:46;1.87;;;1.70;;
3085;SDS011;52812;48.960;9.108;2023-06-19T12:25:13;1.83;;;1.73;;
3085;SDS011;52812;48.960;9.108;2023-06-19T12:27:39;2.33;;;1.90;;
3085;SDS011;52812;48.960;9.108;2023-06-19T12:30:06;1.93;;;1.70;;
3085;SDS011;52812;48.960;9.108;2023-06-19T12:32:32;1.77;;;1.40;;
3085;SDS011;52812;48.960;9.108;2023-06-19T12:34:58;1.60;;;1.43;;
3085;SDS011;52812;48.960;9.108;2023-06-19T12:37:24;2.23;;;1.50;;
3085;SDS011;52812;48.960;9.108;2023-06-19T12:39:50;1.47;;;1.37;;
3085;SDS011;52812;48.960;9.108;2023-06-19T12:42:16;2.00;;;1.80;;
3085;SDS011;52812;48.960;9.108;2023-06-19T12:44:42;1.50;;;1.40;;
3085;SDS011;52812;48.960;9.108;2023-06-19T12:47:10;1.60;;;1.50;;
3085;SDS011;52812;48.960;9.108;2023-06-19T12:49:38;1.67;;;1.50;;
3085;SDS011;52812;48.960;9.108;2023-06-19T12:52:09;2.10;;;1.90;;
3085;SDS011;52812;48.960;9.108;2023-06-19T12:54:35;1.90;;;1.50;;
3085;SDS011;52812;48.960;9.108;2023-06-19T12:57:01;1.60;;;1.50;;
3085;SDS011;52812;48.960;9.108;2023-06-19T12:59:28;1.60;;;1.50;;
3085;SDS011;52812;48.960;9.108;2023-06-19T13:01:55;1.70;;;1.60;;
3085;SDS011;52812;48.960;9.108;2023-06-19T13:04:20;1.53;;;1.43;;
3085;SDS011;52812;48.960;9.108;2023-06-19T13:06:46;2.00;;;1.80;;
3085;SDS011;52812;48.960;9.108;2023-06-19T13:09:14;2.07;;;1.80;;
3085;SDS011;52812;48.960;9.108;2023-06-19T13:11:45;1.30;;;1.20;;
3085;SDS011;52812;48.960;9.108;2023-06-19T13:14:10;1.60;;;1.50;;
3085;SDS011;52812;48.960;9.108;2023-06-19T13:16:36;1.97;;;1.77;;
3085;SDS011;52812;48.960;9.108;2023-06-19T13:19:02;1.87;;;1.50;;
3085;SDS011;52812;48.960;9.108;2023-06-19T13:21:28;1.67;;;1.57;;
3085;SDS011;52812;48.960;9.108;2023-06-19T13:23:54;1.70;;;1.60;;
3085;SDS011;52812;48.960;9.108;2023-06-19T13:26:19;2.00;;;1.80;;
3085;SDS011;52812;48.960;9.108;2023-06-19T13:28:45;2.03;;;1.77;;
3085;SDS011;52812;48.960;9.108;2023-06-19T13:31:11;1.50;;;1.40;;
3085;SDS011;52812;48.960;9.108;2023-06-19T13:33:37;1.50;;;1.40;;
3085;SDS011;52812;48.960;9.108;2023-06-19T13:36:02;1.70;;;1.40;;
3085;SDS011;52812;48.960;9.108;2023-06-19T13:38:28;1.80;;;1.57;;
3085;SDS011;52812;48.960;9.108;2023-06-19T13:40:54;1.63;;;1.53;;
3085;SDS011;52812;48.960;9.108;2023-06-19T13:43:19;1.63;;;1.53;;
3085;SDS011;52812;48.960;9.108;2023-06-19T13:45:48;1.57;;;1.40;;
3085;SDS011;52812;48.960;9.108;2023-06-19T13:48:13;3.60;;;1.70;;
3085;SDS011;52812;48.960;9.108;2023-06-19T13:50:39;2.70;;;2.00;;
3085;SDS011;52812;48.960;9.108;2023-06-19T13:53:05;1.57;;;1.47;;
3085;SDS011;52812;48.960;9.108;2023-06-19T13:55:30;2.00;;;1.90;;
3085;SDS011;52812;48.960;9.108;2023-06-19T13:57:56;1.63;;;1.53;;
3085;SDS011;52812;48.960;9.108;2023-06-19T14:00:22;1.80;;;1.70;;
3085;SDS011;52812;48.960;9.108;2023-06-19T14:02:48;2.20;;;2.03;;
3085;SDS011;52812;48.960;9.108;2023-06-19T14:05:14;1.57;;;1.47;;
3085;SDS011;52812;48.960;9.108;2023-06-19T14:07:40;1.60;;;1.43;;
3085;SDS011;52812;48.960;9.108;2023-06-19T14:10:09;1.37;;;1.27;;
3085;SDS011;52812;48.960;9.108;2023-06-19T14:12:35;2.00;;;1.80;;
3085;SDS011;52812;48.960;9.108;2023-06-19T14:15:00;2.30;;;1.67;;
3085;SDS011;52812;48.960;9.108;2023-06-19T14:17:26;2.73;;;2.20;;
3085;SDS011;52812;48.960;9.108;2023-06-19T14:19:51;2.03;;;1.80;;
3085;SDS011;52812;48.960;9.108;2023-06-19T14:22:17;2.00;;;1.80;;
3085;SDS011;52812;48.960;9.108;2023-06-19T14:24:43;1.80;;;1.70;;
3085;SDS011;52812;48.960;9.108;2023-06-19T14:27:09;1.87;;;1.63;;
3085;SDS011;52812;48.960;9.108;2023-06-19T14:29:35;1.60;;;1.50;;
3085;SDS011;52812;48.960;9.108;2023-06-19T14:32:00;1.53;;;1.30;;
3085;SDS011;52812;48.960;9.108;2023-06-19T14:34:27;1.70;;;1.60;;
3085;SDS011;52812;48.960;9.108;2023-06-19T14:36:53;1.77;;;1.67;;
3085;SDS011;52812;48.960;9.108;2023-06-19T14:39:19;1.97;;;1.60;;
3085;SDS011;52812;48.960;9.108;2023-06-19T14:41:44;2.10;;;1.80;;
3085;SDS011;52812;48.960;9.108;2023-06-19T14:44:10;1.83;;;1.63;;
3085;SDS011;52812;48.960;9.108;2023-06-19T14:46:35;1.50;;;1.40;;
3085;SDS011;52812;48.960;9.108;2023-06-19T14:49:04;2.00;;;1.50;;
3085;SDS011;52812;48.960;9.108;2023-06-19T14:51:31;1.87;;;1.63;;
3085;SDS011;52812;48.960;9.108;2023-06-19T14:53:56;2.00;;;1.80;;
3085;SDS011;52812;48.960;9.108;2023-06-19T14:56:22;3.37;;;2.13;;
3085;SDS011;52812;48.960;9.108;2023-06-19T14:58:47;2.20;;;1.80;;
3085;SDS011;52812;48.960;9.108;2023-06-19T15:01:13;1.93;;;1.67;;
3085;SDS011;52812;48.960;9.108;2023-06-19T15:03:38;3.73;;;1.70;;
3085;SDS011;52812;48.960;9.108;2023-06-19T15:06:04;1.93;;;1.70;;
3085;SDS011;52812;48.960;9.108;2023-06-19T15:08:30;2.33;;;1.73;;